createdAt,value
2023-01-08T00:03:18.372Z,91.41
2023-01-08T00:08:19.755Z,91.78
2023-01-08T00:13:21.173Z,92.08
2023-01-08T00:18:24.703Z,92.80
2023-01-08T00:23:26.344Z,92.52
2023-01-08T00:28:27.761Z,92.96
2023-01-08T00:33:29.300Z,93.04
2023-01-08T00:38:30.709Z,92.64
2023-01-08T00:43:32.345Z,92.58
2023-01-08T00:48:38.438Z,92.45
2023-01-08T00:53:39.773Z,92.03
2023-01-08T00:58:41.115Z,92.75
2023-01-08T01:03:42.676Z,92.91
2023-01-08T01:08:44.375Z,93.24
2023-01-08T01:13:45.809Z,93.22
2023-01-08T01:18:47.254Z,92.43
2023-01-08T01:23:48.833Z,93.03
2023-01-08T01:28:51.018Z,92.77
2023-01-08T01:33:52.358Z,92.22
2023-01-08T01:38:54.791Z,92.61
2023-01-08T01:43:57.446Z,92.76
2023-01-08T01:49:00.556Z,91.72
2023-01-08T01:54:03.299Z,91.44
2023-01-08T01:59:04.810Z,90.45
2023-01-08T02:04:06.247Z,90.33
2023-01-08T02:09:26.533Z,89.92
2023-01-08T02:14:33.023Z,89.42
2023-01-08T02:19:34.366Z,89.20
2023-01-08T02:24:56.142Z,89.19
2023-01-08T02:29:58.087Z,88.98
2023-01-08T02:34:59.473Z,88.96
2023-01-08T02:40:03.814Z,89.36
2023-01-08T02:45:14.413Z,89.66
2023-01-08T02:50:18.865Z,89.51
2023-01-08T02:55:22.083Z,90.74
2023-01-08T03:00:23.690Z,91.44
2023-01-08T03:05:26.330Z,91.00
2023-01-08T03:10:29.613Z,90.55
2023-01-08T03:15:34.072Z,90.53
2023-01-08T03:20:37.432Z,90.67
2023-01-08T03:25:41.414Z,90.96
2023-01-08T03:30:43.745Z,91.03
2023-01-08T03:35:47.857Z,90.78
2023-01-08T03:40:52.341Z,90.87
2023-01-08T03:45:56.155Z,91.36
2023-01-08T03:50:57.558Z,92.32
2023-01-08T03:55:58.874Z,91.87
2023-01-08T04:01:00.797Z,93.28
2023-01-08T04:06:02.121Z,93.57
2023-01-08T04:11:03.433Z,93.55
2023-01-08T04:16:05.067Z,92.96
2023-01-08T04:21:06.458Z,92.26
2023-01-08T04:26:08.251Z,92.20
2023-01-08T04:31:09.853Z,92.45
2023-01-08T04:36:11.309Z,91.96
2023-01-08T04:41:12.722Z,91.29
2023-01-08T04:46:14.111Z,92.25
2023-01-08T04:51:15.487Z,92.75
2023-01-08T04:56:16.837Z,92.63
2023-01-08T05:01:19.512Z,92.10
2023-01-08T05:06:20.893Z,91.78
2023-01-08T05:11:22.339Z,91.34
2023-01-08T05:16:23.679Z,91.53
2023-01-08T05:21:25.260Z,91.58
2023-01-08T05:26:26.579Z,91.48
2023-01-08T05:31:27.951Z,91.73
2023-01-08T05:36:30.948Z,91.87
2023-01-08T05:41:32.286Z,91.77
2023-01-08T05:46:33.638Z,91.06
2023-01-08T05:51:35.029Z,91.11
2023-01-08T05:56:36.384Z,92.08
2023-01-08T06:01:37.792Z,92.87
2023-01-08T06:06:39.204Z,92.16
2023-01-08T06:11:40.531Z,91.83
2023-01-08T06:16:43.165Z,92.08
2023-01-08T06:21:44.629Z,91.62
2023-01-08T06:26:46.014Z,90.99
2023-01-08T06:31:47.313Z,91.29
2023-01-08T06:36:48.687Z,91.69
2023-01-08T06:41:50.009Z,92.38
2023-01-08T06:46:51.546Z,93.41
2023-01-08T06:51:52.920Z,94.06
2023-01-08T06:56:54.658Z,94.07
2023-01-08T07:01:56.141Z,94.33
2023-01-08T07:06:57.505Z,94.22
2023-01-08T07:11:58.831Z,94.66
2023-01-08T07:17:00.184Z,95.32
2023-01-08T07:22:01.600Z,95.48
2023-01-08T07:27:02.971Z,95.52
2023-01-08T07:32:04.445Z,96.54
2023-01-08T07:37:05.778Z,97.14
2023-01-08T07:42:07.161Z,97.61
2023-01-08T07:47:08.575Z,97.80
2023-01-08T07:52:09.899Z,97.32
2023-01-08T07:57:11.192Z,97.18
2023-01-08T08:02:12.624Z,96.54
2023-01-08T08:07:14.231Z,97.00
2023-01-08T08:12:15.689Z,97.24
2023-01-08T08:17:17.100Z,96.79
2023-01-08T08:22:18.625Z,97.07
2023-01-08T08:27:20.006Z,97.17
2023-01-08T08:32:21.412Z,96.58
2023-01-08T08:37:22.721Z,97.67
2023-01-08T08:42:24.026Z,97.32
2023-01-08T08:47:25.396Z,97.65
2023-01-08T08:52:26.722Z,98.14
2023-01-08T08:57:28.052Z,97.87
2023-01-08T09:02:29.594Z,97.64
2023-01-08T09:07:31.018Z,98.37
2023-01-08T09:12:32.373Z,97.58
2023-01-08T09:17:34.055Z,98.42
2023-01-08T09:22:35.387Z,98.39
2023-01-08T09:27:36.772Z,98.05
2023-01-08T09:32:38.306Z,97.90
2023-01-08T09:37:39.720Z,97.96
2023-01-08T09:42:41.118Z,98.35
2023-01-08T09:47:43.531Z,98.67
2023-01-08T09:52:45.761Z,98.53
2023-01-08T09:57:47.943Z,98.68
2023-01-08T10:02:49.653Z,98.64
2023-01-08T10:07:51.029Z,98.66
2023-01-08T10:12:53.173Z,99.34
2023-01-08T10:17:58.125Z,99.07
2023-01-08T10:23:13.206Z,99.13
2023-01-08T10:28:19.411Z,99.01
2023-01-08T10:33:25.117Z,99.47
2023-01-08T10:38:52.874Z,99.73
2023-01-08T10:44:02.029Z,99.40
2023-01-08T10:49:05.132Z,99.77
2023-01-08T10:54:26.340Z,99.46
2023-01-08T10:59:27.849Z,99.12
2023-01-08T11:04:32.450Z,99.15
2023-01-08T11:09:38.821Z,99.11
2023-01-08T11:14:40.271Z,99.00
2023-01-08T11:19:41.605Z,99.67
2023-01-08T11:24:43.330Z,99.42
2023-01-08T11:29:45.573Z,99.01
2023-01-08T11:34:56.082Z,98.68
2023-01-08T11:39:57.720Z,98.58
2023-01-08T11:44:59.224Z,98.96
2023-01-08T11:50:09.901Z,98.93
2023-01-08T11:55:11.284Z,98.61
2023-01-08T12:00:15.645Z,98.42
2023-01-08T12:05:25.753Z,98.91
2023-01-08T12:10:32.437Z,99.19
2023-01-08T12:15:48.747Z,99.24
2023-01-08T12:20:50.033Z,99.06
2023-01-08T12:26:12.735Z,98.56
2023-01-08T12:31:32.954Z,98.88
2023-01-08T12:36:37.969Z,98.95
2023-01-08T12:41:39.984Z,98.61
2023-01-08T12:46:43.203Z,98.25
2023-01-08T12:52:14.083Z,98.01
2023-01-08T12:57:22.127Z,98.43
2023-01-08T13:02:30.018Z,99.43
2023-01-08T13:07:38.709Z,98.46
2023-01-08T13:12:40.847Z,98.59
2023-01-08T13:17:47.970Z,98.74
2023-01-08T13:22:56.701Z,98.40
2023-01-08T13:27:58.232Z,97.98
2023-01-08T13:32:59.789Z,97.70
2023-01-08T13:38:10.290Z,98.04
2023-01-08T13:43:14.662Z,97.71
2023-01-08T13:48:23.491Z,97.41
2023-01-08T13:53:25.042Z,97.09
2023-01-08T13:58:30.173Z,96.74
2023-01-08T14:03:35.586Z,96.99
2023-01-08T14:08:37.200Z,96.57
2023-01-08T14:13:38.569Z,96.33
2023-01-08T14:18:43.851Z,95.79
2023-01-08T14:23:46.443Z,96.56
2023-01-08T14:28:51.532Z,96.14
2023-01-08T14:33:56.963Z,95.67
2023-01-08T14:38:58.314Z,95.60
2023-01-08T14:43:59.677Z,95.91
2023-01-08T14:49:01.039Z,95.84
2023-01-08T14:54:04.652Z,95.50
2023-01-08T14:59:07.502Z,95.63
2023-01-08T15:04:19.021Z,95.12
2023-01-08T15:09:20.335Z,95.01
2023-01-08T15:14:25.388Z,95.46
2023-01-08T15:19:28.643Z,95.08
2023-01-08T15:24:31.906Z,94.62
2023-01-08T15:29:33.405Z,94.86
2023-01-08T15:34:34.906Z,95.18
2023-01-08T15:39:36.298Z,94.55
2023-01-08T15:44:38.862Z,94.82
2023-01-08T15:49:40.699Z,94.72
2023-01-08T15:54:42.538Z,94.07
2023-01-08T15:59:43.881Z,94.24
2023-01-08T16:04:46.246Z,94.80
2023-01-08T16:09:47.779Z,93.97
2023-01-08T16:14:49.121Z,94.53
2023-01-08T16:19:50.507Z,94.08
2023-01-08T16:24:53.555Z,93.58
2023-01-08T16:29:55.521Z,94.23
2023-01-08T16:34:57.229Z,93.66
2023-01-08T16:39:58.612Z,94.01
2023-01-08T16:45:01.896Z,94.64
2023-01-08T16:50:03.382Z,94.29
2023-01-08T16:55:06.457Z,94.09
2023-01-08T17:00:09.083Z,92.70
2023-01-08T17:05:10.462Z,92.80
2023-01-08T17:10:12.924Z,92.54
2023-01-08T17:15:15.732Z,92.51
2023-01-08T17:20:19.667Z,92.86
2023-01-08T17:25:22.520Z,93.24
2023-01-08T17:30:23.957Z,94.15
2023-01-08T17:35:25.574Z,93.78
2023-01-08T17:40:27.507Z,93.72
2023-01-08T17:45:29.024Z,93.92
2023-01-08T17:50:30.399Z,92.64
2023-01-08T17:55:31.875Z,93.03
2023-01-08T18:00:33.236Z,92.35
2023-01-08T18:05:34.928Z,91.83
2023-01-08T18:10:37.049Z,92.25
2023-01-08T18:15:38.528Z,91.52
2023-01-08T18:20:40.790Z,91.05
2023-01-08T18:25:42.436Z,90.06
2023-01-08T18:30:46.401Z,90.42
2023-01-08T18:35:48.304Z,89.24
2023-01-08T18:40:49.670Z,89.57
2023-01-08T18:45:51.257Z,89.42
2023-01-08T18:50:52.802Z,89.98
2023-01-08T18:55:54.671Z,89.52
2023-01-08T19:01:02.033Z,90.17
2023-01-08T19:06:04.245Z,90.60
2023-01-08T19:11:06.525Z,91.11
2023-01-08T19:16:09.713Z,91.45
2023-01-08T19:21:13.852Z,91.26
2023-01-08T19:26:15.394Z,91.64
2023-01-08T19:31:17.767Z,92.59
2023-01-08T19:36:20.992Z,92.47
2023-01-08T19:41:41.153Z,92.38
2023-01-08T19:46:42.536Z,93.12
2023-01-08T19:51:43.910Z,93.04
2023-01-08T19:56:45.498Z,92.28
2023-01-08T20:01:47.074Z,92.67
2023-01-08T20:06:48.687Z,92.99
2023-01-08T20:11:50.055Z,93.04
2023-01-08T20:16:51.462Z,92.58
2023-01-08T20:21:52.886Z,91.86
2023-01-08T20:26:54.241Z,91.90
2023-01-08T20:31:59.217Z,91.29
2023-01-08T20:37:00.641Z,91.61
2023-01-08T20:42:04.598Z,91.37
2023-01-08T20:47:06.298Z,90.40
2023-01-08T20:52:07.797Z,90.53
2023-01-08T20:57:09.555Z,89.67
2023-01-08T21:02:11.392Z,90.31
2023-01-08T21:07:12.832Z,90.24
2023-01-08T21:12:15.111Z,90.05
2023-01-08T21:17:16.489Z,89.68
2023-01-08T21:22:17.861Z,90.43
2023-01-08T21:27:19.297Z,89.43
2023-01-08T21:32:20.815Z,89.33
2023-01-08T21:37:22.201Z,89.37
2023-01-08T21:42:42.348Z,89.94
2023-01-08T21:47:43.761Z,90.21
2023-01-08T21:53:04.021Z,89.96
2023-01-08T21:58:05.425Z,90.92
2023-01-08T22:03:06.843Z,91.34
2023-01-08T22:08:09.245Z,91.30
2023-01-08T22:13:11.435Z,91.29
2023-01-08T22:18:12.841Z,90.59
2023-01-08T22:23:14.197Z,91.25
2023-01-08T22:28:15.551Z,91.06
2023-01-08T22:33:16.927Z,91.86
2023-01-08T22:38:18.263Z,91.00
2023-01-08T22:43:20.246Z,91.71
2023-01-08T22:48:22.796Z,91.47
2023-01-08T22:53:24.323Z,91.64
2023-01-08T22:58:27.582Z,91.78
2023-01-08T23:03:29.411Z,90.96
2023-01-08T23:08:30.798Z,91.17
2023-01-08T23:13:32.394Z,90.55
2023-01-08T23:18:35.237Z,90.29
2023-01-08T23:23:36.650Z,91.09
2023-01-08T23:28:38.359Z,91.15
2023-01-08T23:33:39.707Z,91.47
2023-01-08T23:38:41.065Z,90.93
2023-01-08T23:43:43.367Z,90.85
2023-01-08T23:48:44.732Z,90.74
2023-01-08T23:53:46.126Z,90.71
2023-01-08T23:58:48.217Z,90.36
